Time;durP1;ratioP1;P1;durP2;ratioP2;P2;SDS_P1;SDS_P2;PMS_P1;PMS_P2;Temp;Humidity;BMP_temperature;BMP_pressure;BME280_temperature;BME280_humidity;BME280_pressure;Samples;Min_cycle;Max_cycle;Signal;HPM_P1;HPM_P2
2023/12/13 00:08:43;;;;;;;0.45;0.40;;;8.70;99.90;;;;;;20896243;28;20100;-80
2023/12/13 00:18:46;;;;;;;0.50;0.40;;;8.60;99.90;;;;;;20913866;28;20060;-79
2023/12/13 00:28:47;;;;;;;0.98;0.52;;;8.50;99.90;;;;;;20905262;28;20405;-80
2023/12/13 00:38:48;;;;;;;2.30;1.53;;;8.50;99.90;;;;;;20913765;28;20056;-80
2023/12/13 00:48:49;;;;;;;1.97;0.70;;;8.50;99.90;;;;;;20882007;28;20088;-81
2023/12/13 00:58:50;;;;;;;1.83;0.50;;;8.40;99.90;;;;;;20894196;28;20036;-79
2023/12/13 01:08:51;;;;;;;1.43;0.67;;;8.50;99.90;;;;;;20905818;28;20090;-80
2023/12/13 01:18:52;;;;;;;2.90;0.70;;;8.40;99.90;;;;;;20893956;28;20494;-79
2023/12/13 01:28:52;;;;;;;2.90;0.60;;;8.30;99.90;;;;;;20879272;28;20033;-81
2023/12/13 01:38:53;;;;;;;1.97;0.60;;;8.20;99.90;;;;;;20878356;28;20054;-79
2023/12/13 01:48:54;;;;;;;0.97;0.50;;;8.00;99.90;;;;;;20908107;28;20037;-80
2023/12/13 01:58:55;;;;;;;2.73;0.77;;;7.90;99.90;;;;;;20885885;28;20493;-80
2023/12/13 02:08:56;;;;;;;6.57;1.10;;;7.90;99.90;;;;;;20901176;28;20420;-81
2023/12/13 02:18:57;;;;;;;4.03;0.67;;;7.90;99.90;;;;;;20860790;28;20392;-80
2023/12/13 02:28:59;;;;;;;1.27;0.70;;;7.80;99.90;;;;;;20900514;28;20382;-80
2023/12/13 02:39:03;;;;;;;1.48;1.08;;;7.80;99.90;;;;;;20895476;28;20050;-80
2023/12/13 02:49:04;;;;;;;1.13;0.63;;;7.60;99.90;;;;;;20873459;28;20026;-80
2023/12/13 02:59:05;;;;;;;1.03;0.70;;;7.60;99.90;;;;;;20881657;28;20029;-80
2023/12/13 03:09:06;;;;;;;7.78;1.20;;;7.50;99.90;;;;;;20879156;28;20070;-80
2023/12/13 03:19:07;;;;;;;3.83;1.07;;;7.50;99.90;;;;;;20889608;28;20116;-81
2023/12/13 03:29:07;;;;;;;3.97;1.23;;;7.60;99.90;;;;;;20909194;28;20082;-80
2023/12/13 03:39:08;;;;;;;1.47;0.90;;;7.50;99.90;;;;;;20900870;28;20064;-80
2023/12/13 03:49:09;;;;;;;2.13;1.00;;;7.50;99.90;;;;;;20910689;28;20056;-79
2023/12/13 03:59:10;;;;;;;5.87;1.20;;;7.50;99.90;;;;;;20905280;28;20393;-80
2023/12/13 04:09:10;;;;;;;6.00;1.67;;;7.50;99.90;;;;;;20915984;28;20036;-80
2023/12/13 04:19:11;;;;;;;3.27;1.07;;;7.50;99.90;;;;;;20880013;28;20040;-80
2023/12/13 04:29:12;;;;;;;4.17;1.40;;;7.30;99.90;;;;;;20872422;28;20353;-79
2023/12/13 04:39:13;;;;;;;5.10;2.90;;;7.70;99.90;;;;;;20891347;28;20288;-80
2023/12/13 04:49:14;;;;;;;6.77;2.30;;;7.50;99.90;;;;;;20892826;28;20041;-80
2023/12/13 04:59:15;;;;;;;7.10;1.98;;;7.50;99.90;;;;;;20892858;28;20037;-81
2023/12/13 05:09:16;;;;;;;3.67;1.35;;;7.40;99.90;;;;;;20900677;28;20033;-80
2023/12/13 05:19:16;;;;;;;2.97;1.70;;;7.40;99.90;;;;;;20880331;28;20108;-80
2023/12/13 05:29:17;;;;;;;7.17;1.90;;;7.50;99.90;;;;;;20882442;28;20303;-81
2023/12/13 05:39:18;;;;;;;7.23;1.90;;;7.20;99.90;;;;;;20874088;28;20055;-80
2023/12/13 05:49:19;;;;;;;3.75;1.80;;;7.20;99.90;;;;;;20874112;28;20033;-79
2023/12/13 05:59:19;;;;;;;6.80;1.73;;;7.30;99.90;;;;;;20895858;28;20033;-80
2023/12/13 06:09:20;;;;;;;3.97;1.43;;;7.20;99.90;;;;;;20885407;28;20037;-79
2023/12/13 06:19:21;;;;;;;3.17;1.47;;;7.20;99.90;;;;;;20871821;28;20358;-81
2023/12/13 06:29:22;;;;;;;9.38;3.28;;;7.30;99.90;;;;;;20869619;28;20032;-81
2023/12/13 06:39:23;;;;;;;8.17;3.10;;;7.30;99.90;;;;;;20890378;28;20124;-79
2023/12/13 06:49:28;;;;;;;7.43;3.50;;;7.40;99.90;;;;;;20887912;28;20029;-79
2023/12/13 06:59:28;;;;;;;10.27;2.90;;;7.30;99.90;;;;;;20868470;28;20037;-80
2023/12/13 07:09:30;;;;;;;5.33;2.03;;;7.30;99.90;;;;;;20852041;28;20029;-81
2023/12/13 07:19:31;;;;;;;3.10;1.67;;;7.30;99.90;;;;;;20872879;28;20120;-81
2023/12/13 07:29:33;;;;;;;2.97;1.77;;;7.30;99.90;;;;;;20873404;28;20052;-79
2023/12/13 07:39:36;;;;;;;5.03;2.20;;;7.20;99.90;;;;;;20877172;28;20116;-79
2023/12/13 07:49:37;;;;;;;2.40;1.73;;;7.10;99.90;;;;;;20897346;28;20034;-79
2023/12/13 07:59:38;;;;;;;4.53;1.70;;;7.30;99.90;;;;;;20875132;28;20040;-80
2023/12/13 08:09:38;;;;;;;3.83;1.47;;;7.50;99.90;;;;;;20864927;28;20315;-81
2023/12/13 08:19:39;;;;;;;6.43;1.10;;;7.60;99.90;;;;;;20904290;28;20556;-79
2023/12/13 08:29:40;;;;;;;8.07;5.47;;;7.70;99.90;;;;;;20896825;28;20033;-79
2023/12/13 08:39:41;;;;;;;15.20;7.63;;;7.80;99.90;;;;;;20865512;28;20554;-81
2023/12/13 08:49:44;;;;;;;10.48;5.10;;;7.80;99.90;;;;;;20874706;28;20040;-79
2023/12/13 08:59:45;;;;;;;9.05;4.78;;;7.90;99.90;;;;;;20873089;28;20401;-78
2023/12/13 09:09:46;;;;;;;10.10;5.63;;;7.70;99.90;;;;;;20895656;28;20033;-78
2023/12/13 09:19:46;;;;;;;10.57;4.93;;;7.60;99.90;;;;;;20869343;28;20033;-80
2023/12/13 09:29:47;;;;;;;10.83;4.67;;;7.70;99.90;;;;;;20875987;28;20406;-78
2023/12/13 09:39:48;;;;;;;8.57;4.00;;;8.10;99.90;;;;;;20892772;28;20040;-79
2023/12/13 09:49:50;;;;;;;8.83;3.33;;;8.10;99.90;;;;;;20865424;28;20498;-78
2023/12/13 09:59:50;;;;;;;6.70;3.10;;;8.00;99.90;;;;;;20902933;28;20025;-79
2023/12/13 10:09:51;;;;;;;6.40;2.70;;;8.30;99.90;;;;;;20878262;28;20072;-79
2023/12/13 10:19:53;;;;;;;5.55;3.08;;;8.30;99.90;;;;;;20897800;28;20084;-79
2023/12/13 10:29:55;;;;;;;8.10;4.13;;;8.40;99.90;;;;;;20858034;28;20495;-79
2023/12/13 10:39:59;;;;;;;8.20;4.00;;;8.20;99.90;;;;;;20890076;28;20101;-79
2023/12/13 10:50:01;;;;;;;4.93;2.88;;;8.20;99.90;;;;;;20899121;28;20727;-81
2023/12/13 11:00:03;;;;;;;7.00;2.30;;;8.20;99.90;;;;;;20885446;28;20041;-79
2023/12/13 11:10:06;;;;;;;6.47;2.17;;;8.30;99.90;;;;;;20890526;28;20116;-78
2023/12/13 11:20:09;;;;;;;3.97;2.35;;;8.50;99.90;;;;;;20881377;28;20096;-80
2023/12/13 11:30:12;;;;;;;10.20;5.13;;;10.00;99.90;;;;;;20863401;28;20029;-78
2023/12/13 11:40:14;;;;;;;5.80;2.72;;;10.30;99.90;;;;;;20898242;28;20056;-80
2023/12/13 11:50:16;;;;;;;2.30;1.50;;;10.70;99.90;;;;;;20872248;28;20132;-79
2023/12/13 12:00:18;;;;;;;0.75;0.47;;;12.00;99.90;;;;;;20903828;28;20515;-80
2023/12/13 12:10:19;;;;;;;0.22;0.22;;;11.40;99.90;;;;;;20887454;28;20025;-80
2023/12/13 12:20:21;;;;;;;;;;;10.20;99.90;;;;;;20912884;28;20559;-79
2023/12/13 12:30:22;;;;;;;1.25;0.30;;;10.00;99.90;;;;;;20879514;28;19917;-79
2023/12/13 12:40:22;;;;;;;0.73;0.60;;;9.70;99.90;;;;;;20902485;28;20044;-79
2023/12/13 12:50:23;;;;;;;18.33;8.23;;;9.40;99.90;;;;;;20885542;28;20029;-79
2023/12/13 13:00:25;;;;;;;6.47;3.57;;;9.40;99.90;;;;;;20892683;28;20021;-80
2023/12/13 13:10:26;;;;;;;3.25;0.90;;;9.30;99.90;;;;;;20873701;28;20061;-78
2023/12/13 13:20:26;;;;;;;1.08;0.55;;;8.90;99.90;;;;;;20890606;28;20029;-78
2023/12/13 13:30:27;;;;;;;5.70;1.90;;;8.60;99.90;;;;;;20860784;28;20064;-80
2023/12/13 13:40:28;;;;;;;7.03;1.03;;;8.70;99.90;;;;;;20865519;28;20544;-79
2023/12/13 13:50:29;;;;;;;6.30;1.07;;;8.60;99.90;;;;;;20883838;28;20033;-80
2023/12/13 14:00:30;;;;;;;0.63;0.63;;;8.50;99.90;;;;;;20922540;28;20321;-78
2023/12/13 14:10:30;;;;;;;0.47;0.40;;;8.20;99.90;;;;;;20879325;28;20547;-79
2023/12/13 14:20:31;;;;;;;0.40;0.40;;;7.80;99.90;;;;;;20884487;28;20041;-79
2023/12/13 14:30:32;;;;;;;;;;;7.40;99.90;;;;;;20884007;28;20525;-78
2023/12/13 14:40:33;;;;;;;0.30;0.30;;;7.20;99.90;;;;;;20890986;28;20391;-79
2023/12/13 14:50:35;;;;;;;;;;;7.10;99.90;;;;;;20860052;28;20036;-79
2023/12/13 15:00:36;;;;;;;3.27;1.23;;;7.10;99.90;;;;;;20892293;28;19916;-78
2023/12/13 15:10:37;;;;;;;3.85;1.20;;;7.20;99.90;;;;;;20877134;28;20037;-79
2023/12/13 15:20:37;;;;;;;2.92;0.85;;;7.10;99.90;;;;;;20891077;28;20036;-78
2023/12/13 15:30:38;;;;;;;2.53;1.73;;;7.00;99.90;;;;;;20874256;28;20039;-78
2023/12/13 15:40:39;;;;;;;;;;;7.00;99.90;;;;;;20990914;23;20810;-77
2023/12/13 15:50:43;;;;;;;10.10;1.83;;;7.00;99.90;;;;;;20906488;28;19924;-79
2023/12/13 16:00:44;;;;;;;5.53;1.80;;;7.00;99.90;;;;;;20923013;28;20074;-78
2023/12/13 16:10:46;;;;;;;2.97;1.60;;;7.00;99.90;;;;;;20919435;28;20055;-79
2023/12/13 16:20:47;;;;;;;4.68;1.80;;;7.00;99.90;;;;;;20921933;28;20029;-78
2023/12/13 16:30:50;;;;;;;13.47;5.00;;;7.00;99.90;;;;;;20923354;28;20413;-79
2023/12/13 16:40:50;;;;;;;5.47;2.72;;;7.00;99.90;;;;;;20886485;28;20045;-77
2023/12/13 16:50:51;;;;;;;7.17;3.57;;;7.00;99.90;;;;;;20919021;28;20035;-78
2023/12/13 17:00:52;;;;;;;3.30;1.27;;;6.80;99.90;;;;;;20924474;28;20024;-78
2023/12/13 17:10:53;;;;;;;;;;;6.80;99.90;;;;;;20925433;28;20033;-77
2023/12/13 17:20:53;;;;;;;3.03;2.10;;;6.70;99.90;;;;;;20918355;28;20306;-78
2023/12/13 17:30:54;;;;;;;3.57;2.50;;;6.70;99.90;;;;;;20903700;28;20054;-78
2023/12/13 17:40:56;;;;;;;7.27;2.73;;;6.70;99.90;;;;;;20890760;28;20283;-77
2023/12/13 17:50:57;;;;;;;3.95;2.22;;;6.70;99.90;;;;;;20906404;28;20298;-78
2023/12/13 18:00:57;;;;;;;6.27;2.40;;;6.60;99.90;;;;;;20918757;28;20410;-77
2023/12/13 18:10:59;;;;;;;;;;;6.50;99.90;;;;;;20901098;28;20120;-77
2023/12/13 18:21:02;;;;;;;5.20;2.30;;;6.50;99.90;;;;;;20892846;28;19951;-77
2023/12/13 18:31:03;;;;;;;5.90;2.15;;;6.50;99.90;;;;;;20885890;28;20025;-77
2023/12/13 18:41:04;;;;;;;;;;;6.60;99.90;;;;;;20901799;28;20039;-77
2023/12/13 18:51:05;;;;;;;3.60;1.87;;;6.60;99.90;;;;;;20893962;28;20321;-77
2023/12/13 19:01:06;;;;;;;;;;;6.60;99.90;;;;;;20883072;28;20286;-77
2023/12/13 19:11:06;;;;;;;6.18;2.92;;;6.60;99.90;;;;;;20882022;28;20377;-77
2023/12/13 19:21:08;;;;;;;3.77;2.17;;;6.60;99.90;;;;;;20885527;28;20455;-77
2023/12/13 19:31:08;;;;;;;5.22;1.70;;;6.60;99.90;;;;;;20906564;28;20287;-78
2023/12/13 19:41:09;;;;;;;;;;;6.60;99.90;;;;;;20883807;28;20082;-77
2023/12/13 19:51:10;;;;;;;4.30;2.47;;;6.60;99.90;;;;;;20900365;28;20009;-77
2023/12/13 20:01:13;;;;;;;7.23;3.07;;;6.60;99.90;;;;;;20904547;28;20647;-75
2023/12/13 20:11:14;;;;;;;6.90;3.63;;;6.60;99.90;;;;;;20899804;28;20029;-78
2023/12/13 20:21:15;;;;;;;5.38;2.10;;;6.60;99.90;;;;;;20917579;28;20512;-78
2023/12/13 20:31:16;;;;;;;6.97;1.70;;;6.60;99.90;;;;;;20911198;28;20029;-77
2023/12/13 20:41:16;;;;;;;5.60;2.30;;;6.60;99.90;;;;;;20927993;28;20025;-77
2023/12/13 20:51:17;;;;;;;4.77;2.87;;;6.60;99.90;;;;;;20928538;28;20326;-78
2023/12/13 21:01:18;;;;;;;2.03;1.58;;;6.50;99.90;;;;;;20937256;28;20032;-78
2023/12/13 21:11:19;;;;;;;;;;;6.40;99.90;;;;;;20960136;28;20032;-76
2023/12/13 21:21:21;;;;;;;8.07;2.03;;;6.40;99.90;;;;;;20945340;28;19958;-79
2023/12/13 21:31:22;;;;;;;5.88;1.98;;;6.40;99.90;;;;;;20911377;28;20056;-78
2023/12/13 21:41:23;;;;;;;;;;;6.30;99.90;;;;;;20923873;28;20052;-78
2023/12/13 21:51:23;;;;;;;7.82;2.72;;;6.30;99.90;;;;;;20949888;28;19913;-78
2023/12/13 22:01:24;;;;;;;5.73;2.57;;;6.20;99.90;;;;;;20946493;28;20515;-79
2023/12/13 22:11:26;;;;;;;6.53;3.50;;;6.10;99.90;;;;;;20960706;28;20288;-79
2023/12/13 22:21:27;;;;;;;10.77;5.35;;;6.20;99.90;;;;;;20936460;28;20060;-78
2023/12/13 22:31:27;;;;;;;;;;;6.20;99.90;;;;;;20916165;28;20033;-79
2023/12/13 22:41:28;;;;;;;8.00;3.87;;;6.10;99.90;;;;;;20933680;28;19908;-79
2023/12/13 22:51:29;;;;;;;;;;;6.00;99.90;;;;;;20933072;28;20087;-79
2023/12/13 23:01:30;;;;;;;13.80;4.87;;;6.00;99.90;;;;;;20932297;28;19909;-79
2023/12/13 23:11:30;;;;;;;;;;;6.00;99.90;;;;;;20905455;28;20307;-78
2023/12/13 23:21:31;;;;;;;8.53;3.13;;;6.00;99.90;;;;;;20929130;28;19924;-79
2023/12/13 23:31:32;;;;;;;;;;;6.00;99.90;;;;;;20933496;28;20112;-79
2023/12/13 23:41:34;;;;;;;2.20;1.30;;;6.00;99.90;;;;;;20948430;28;20637;-79
2023/12/13 23:51:35;;;;;;;4.97;1.60;;;5.90;99.90;;;;;;20930380;28;20477;-79
